sensor_id;sensor_type;location;lat;lon;timestamp;pressure;altitude;pressure_sealevel;temperature;humidity
39363;BME280;25088;43.238;23.110;2023-02-21T00:01:37;96713.78;;;10.93;46.45
39363;BME280;25088;43.238;23.110;2023-02-21T00:04:22;96693.28;;;10.91;45.89
39363;BME280;25088;43.238;23.110;2023-02-21T00:07:09;96697.84;;;11.29;45.13
39363;BME280;25088;43.238;23.110;2023-02-21T00:09:56;96712.91;;;11.31;44.81
39363;BME280;25088;43.238;23.110;2023-02-21T00:12:40;96709.34;;;11.31;45.09
39363;BME280;25088;43.238;23.110;2023-02-21T00:15:24;96713.84;;;11.42;44.80
39363;BME280;25088;43.238;23.110;2023-02-21T00:18:08;96707.16;;;11.55;43.90
39363;BME280;25088;43.238;23.110;2023-02-21T00:20:52;96706.66;;;11.63;44.00
39363;BME280;25088;43.238;23.110;2023-02-21T00:23:36;96703.53;;;11.76;43.43
39363;BME280;25088;43.238;23.110;2023-02-21T00:26:21;96696.81;;;11.84;43.62
39363;BME280;25088;43.238;23.110;2023-02-21T00:29:06;96696.09;;;11.72;44.44
39363;BME280;25088;43.238;23.110;2023-02-21T00:31:51;96692.19;;;11.62;43.69
39363;BME280;25088;43.238;23.110;2023-02-21T00:34:36;96682.97;;;11.69;43.93
39363;BME280;25088;43.238;23.110;2023-02-21T00:37:20;96665.59;;;11.58;43.81
39363;BME280;25088;43.238;23.110;2023-02-21T00:40:04;96680.50;;;11.72;43.43
39363;BME280;25088;43.238;23.110;2023-02-21T00:42:48;96668.78;;;11.77;43.17
39363;BME280;25088;43.238;23.110;2023-02-21T00:45:32;96663.59;;;11.75;43.61
39363;BME280;25088;43.238;23.110;2023-02-21T00:48:20;96653.28;;;11.82;43.17
39363;BME280;25088;43.238;23.110;2023-02-21T00:51:04;96642.03;;;11.79;43.02
39363;BME280;25088;43.238;23.110;2023-02-21T00:53:48;96644.56;;;11.85;43.05
39363;BME280;25088;43.238;23.110;2023-02-21T00:56:32;96632.53;;;11.86;43.05
39363;BME280;25088;43.238;23.110;2023-02-21T00:59:16;96621.31;;;11.88;43.03
39363;BME280;25088;43.238;23.110;2023-02-21T01:02:00;96616.56;;;11.78;43.02
39363;BME280;25088;43.238;23.110;2023-02-21T01:04:44;96613.13;;;11.88;42.96
39363;BME280;25088;43.238;23.110;2023-02-21T01:07:28;96610.66;;;11.86;43.27
39363;BME280;25088;43.238;23.110;2023-02-21T01:10:12;96617.97;;;11.81;43.22
39363;BME280;25088;43.238;23.110;2023-02-21T01:12:56;96617.09;;;11.75;43.66
39363;BME280;25088;43.238;23.110;2023-02-21T01:15:40;96608.31;;;11.73;44.04
39363;BME280;25088;43.238;23.110;2023-02-21T01:18:24;96606.38;;;11.69;43.52
39363;BME280;25088;43.238;23.110;2023-02-21T01:21:12;96597.38;;;11.73;43.16
39363;BME280;25088;43.238;23.110;2023-02-21T01:23:55;96577.28;;;11.57;44.67
39363;BME280;25088;43.238;23.110;2023-02-21T01:26:39;96589.63;;;11.60;44.46
39363;BME280;25088;43.238;23.110;2023-02-21T01:29:23;96576.44;;;11.52;44.93
39363;BME280;25088;43.238;23.110;2023-02-21T01:32:07;96574.16;;;11.44;44.75
39363;BME280;25088;43.238;23.110;2023-02-21T01:34:51;96566.03;;;11.22;46.17
39363;BME280;25088;43.238;23.110;2023-02-21T01:37:35;96567.97;;;10.94;46.02
39363;BME280;25088;43.238;23.110;2023-02-21T01:40:19;96564.59;;;10.87;46.80
39363;BME280;25088;43.238;23.110;2023-02-21T01:43:15;96555.47;;;10.76;47.26
39363;BME280;25088;43.238;23.110;2023-02-21T01:46:00;96553.88;;;10.58;47.26
39363;BME280;25088;43.238;23.110;2023-02-21T01:48:44;96563.88;;;10.48;47.77
39363;BME280;25088;43.238;23.110;2023-02-21T01:51:34;96576.69;;;10.47;48.09
39363;BME280;25088;43.238;23.110;2023-02-21T01:54:21;96569.94;;;10.33;48.62
39363;BME280;25088;43.238;23.110;2023-02-21T01:57:06;96566.59;;;10.26;47.80
39363;BME280;25088;43.238;23.110;2023-02-21T01:59:52;96573.13;;;10.08;49.26
39363;BME280;25088;43.238;23.110;2023-02-21T02:05:31;96587.56;;;9.87;50.54
39363;BME280;25088;43.238;23.110;2023-02-21T02:08:19;96598.31;;;9.76;50.96
39363;BME280;25088;43.238;23.110;2023-02-21T02:14:48;96600.13;;;9.54;50.67
39363;BME280;25088;43.238;23.110;2023-02-21T02:39:40;96595.97;;;9.18;52.98
39363;BME280;25088;43.238;23.110;2023-02-21T02:47:39;96576.41;;;8.75;55.20
39363;BME280;25088;43.238;23.110;2023-02-21T02:50:08;96580.97;;;8.87;53.84
39363;BME280;25088;43.238;23.110;2023-02-21T02:52:35;96585.13;;;8.77;55.39
39363;BME280;25088;43.238;23.110;2023-02-21T02:58:04;96581.66;;;8.53;56.07
39363;BME280;25088;43.238;23.110;2023-02-21T03:00:33;96579.66;;;8.61;56.88
39363;BME280;25088;43.238;23.110;2023-02-21T03:05:43;96586.56;;;8.28;58.00
39363;BME280;25088;43.238;23.110;2023-02-21T03:08:23;96592.13;;;8.10;59.07
39363;BME280;25088;43.238;23.110;2023-02-21T03:11:10;96592.03;;;8.04;57.59
39363;BME280;25088;43.238;23.110;2023-02-21T03:13:46;96591.47;;;7.91;59.07
39363;BME280;25088;43.238;23.110;2023-02-21T03:16:41;96591.69;;;7.77;59.41
39363;BME280;25088;43.238;23.110;2023-02-21T03:19:18;96602.94;;;7.81;58.42
39363;BME280;25088;43.238;23.110;2023-02-21T03:21:50;96614.50;;;7.76;59.35
39363;BME280;25088;43.238;23.110;2023-02-21T03:24:17;96624.75;;;7.74;58.17
39363;BME280;25088;43.238;23.110;2023-02-21T03:26:47;96629.50;;;7.79;57.84
39363;BME280;25088;43.238;23.110;2023-02-21T03:29:16;96633.53;;;7.76;59.61
39363;BME280;25088;43.238;23.110;2023-02-21T03:31:46;96635.19;;;7.66;59.69
39363;BME280;25088;43.238;23.110;2023-02-21T03:34:14;96648.59;;;7.61;59.71
39363;BME280;25088;43.238;23.110;2023-02-21T03:36:40;96645.06;;;7.60;58.44
39363;BME280;25088;43.238;23.110;2023-02-21T03:39:06;96638.59;;;7.73;57.53
39363;BME280;25088;43.238;23.110;2023-02-21T03:41:31;96640.28;;;7.86;57.47
39363;BME280;25088;43.238;23.110;2023-02-21T03:43:57;96631.50;;;7.84;57.28
39363;BME280;25088;43.238;23.110;2023-02-21T03:46:22;96643.81;;;7.86;58.03
39363;BME280;25088;43.238;23.110;2023-02-21T03:48:48;96643.69;;;7.81;58.38
39363;BME280;25088;43.238;23.110;2023-02-21T03:51:13;96639.19;;;7.87;56.97
39363;BME280;25088;43.238;23.110;2023-02-21T03:53:39;96642.97;;;7.74;57.89
39363;BME280;25088;43.238;23.110;2023-02-21T03:56:05;96637.97;;;7.59;58.33
39363;BME280;25088;43.238;23.110;2023-02-21T03:58:30;96633.50;;;7.53;59.18
39363;BME280;25088;43.238;23.110;2023-02-21T04:00:56;96627.59;;;7.56;58.82
39363;BME280;25088;43.238;23.110;2023-02-21T04:03:22;96628.19;;;7.58;57.16
39363;BME280;25088;43.238;23.110;2023-02-21T04:05:47;96626.78;;;7.79;58.16
39363;BME280;25088;43.238;23.110;2023-02-21T04:08:13;96629.00;;;7.70;57.64
39363;BME280;25088;43.238;23.110;2023-02-21T04:10:38;96618.13;;;7.70;57.22
39363;BME280;25088;43.238;23.110;2023-02-21T04:13:03;96627.25;;;7.88;56.63
39363;BME280;25088;43.238;23.110;2023-02-21T04:15:29;96609.88;;;8.00;55.55
39363;BME280;25088;43.238;23.110;2023-02-21T04:17:54;96607.63;;;8.09;55.03
39363;BME280;25088;43.238;23.110;2023-02-21T04:20:20;96583.03;;;8.04;55.31
39363;BME280;25088;43.238;23.110;2023-02-21T04:22:45;96585.66;;;8.11;55.29
39363;BME280;25088;43.238;23.110;2023-02-21T04:25:11;96567.94;;;7.96;55.68
39363;BME280;25088;43.238;23.110;2023-02-21T04:27:36;96591.09;;;7.99;55.98
39363;BME280;25088;43.238;23.110;2023-02-21T04:30:02;96597.81;;;7.85;56.24
39363;BME280;25088;43.238;23.110;2023-02-21T04:32:28;96593.59;;;7.77;56.30
39363;BME280;25088;43.238;23.110;2023-02-21T04:34:53;96588.72;;;7.79;56.82
39363;BME280;25088;43.238;23.110;2023-02-21T04:37:18;96577.03;;;7.78;56.09
39363;BME280;25088;43.238;23.110;2023-02-21T04:39:44;96592.97;;;7.63;57.44
39363;BME280;25088;43.238;23.110;2023-02-21T04:42:09;96587.06;;;7.43;58.89
39363;BME280;25088;43.238;23.110;2023-02-21T04:44:35;96574.38;;;7.13;60.27
39363;BME280;25088;43.238;23.110;2023-02-21T04:47:02;96587.06;;;7.01;60.57
39363;BME280;25088;43.238;23.110;2023-02-21T04:49:27;96598.97;;;6.88;61.54
39363;BME280;25088;43.238;23.110;2023-02-21T04:51:53;96607.63;;;6.67;62.73
39363;BME280;25088;43.238;23.110;2023-02-21T04:54:19;96600.63;;;6.59;61.38
39363;BME280;25088;43.238;23.110;2023-02-21T04:56:45;96569.63;;;6.37;62.22
39363;BME280;25088;43.238;23.110;2023-02-21T04:59:11;96594.09;;;6.48;61.96
39363;BME280;25088;43.238;23.110;2023-02-21T05:01:36;96603.78;;;6.56;61.99
39363;BME280;25088;43.238;23.110;2023-02-21T05:04:02;96611.47;;;6.41;64.13
39363;BME280;25088;43.238;23.110;2023-02-21T05:06:29;96606.19;;;6.46;61.65
39363;BME280;25088;43.238;23.110;2023-02-21T05:08:55;96599.50;;;6.30;63.19
39363;BME280;25088;43.238;23.110;2023-02-21T05:11:21;96616.88;;;6.59;62.39
39363;BME280;25088;43.238;23.110;2023-02-21T05:13:48;96617.16;;;6.69;61.78
39363;BME280;25088;43.238;23.110;2023-02-21T05:16:13;96616.72;;;6.72;61.35
39363;BME280;25088;43.238;23.110;2023-02-21T05:18:43;96599.69;;;6.65;60.28
39363;BME280;25088;43.238;23.110;2023-02-21T05:21:09;96614.28;;;6.83;60.27
39363;BME280;25088;43.238;23.110;2023-02-21T05:23:35;96605.88;;;7.03;58.40
39363;BME280;25088;43.238;23.110;2023-02-21T05:26:05;96601.34;;;7.27;57.86
39363;BME280;25088;43.238;23.110;2023-02-21T05:28:31;96603.34;;;7.31;56.07
39363;BME280;25088;43.238;23.110;2023-02-21T05:30:56;96605.63;;;7.46;55.86
39363;BME280;25088;43.238;23.110;2023-02-21T05:33:22;96596.53;;;7.52;53.75
39363;BME280;25088;43.238;23.110;2023-02-21T05:35:48;96597.72;;;7.80;52.66
39363;BME280;25088;43.238;23.110;2023-02-21T05:38:18;96603.13;;;8.03;51.79
39363;BME280;25088;43.238;23.110;2023-02-21T05:40:44;96594.38;;;8.13;50.63
39363;BME280;25088;43.238;23.110;2023-02-21T05:43:10;96595.78;;;8.27;50.13
39363;BME280;25088;43.238;23.110;2023-02-21T05:45:35;96588.69;;;8.38;50.92
39363;BME280;25088;43.238;23.110;2023-02-21T05:48:01;96589.28;;;8.40;50.24
39363;BME280;25088;43.238;23.110;2023-02-21T05:50:27;96590.44;;;8.44;50.71
39363;BME280;25088;43.238;23.110;2023-02-21T05:52:54;96585.72;;;8.51;49.07
39363;BME280;25088;43.238;23.110;2023-02-21T05:55:20;96581.97;;;8.69;49.00
39363;BME280;25088;43.238;23.110;2023-02-21T05:57:45;96585.75;;;9.25;47.75
39363;BME280;25088;43.238;23.110;2023-02-21T06:00:19;96585.72;;;9.92;46.32
39363;BME280;25088;43.238;23.110;2023-02-21T06:02:45;96576.69;;;10.47;46.39
39363;BME280;25088;43.238;23.110;2023-02-21T06:05:10;96587.03;;;10.89;43.06
39363;BME280;25088;43.238;23.110;2023-02-21T06:07:36;96578.16;;;11.31;42.51
39363;BME280;25088;43.238;23.110;2023-02-21T06:10:03;96577.81;;;11.86;42.01
39363;BME280;25088;43.238;23.110;2023-02-21T06:12:28;96568.00;;;12.38;40.23
39363;BME280;25088;43.238;23.110;2023-02-21T06:14:54;96560.19;;;12.67;40.26
39363;BME280;25088;43.238;23.110;2023-02-21T06:17:20;96566.94;;;13.22;40.30
39363;BME280;25088;43.238;23.110;2023-02-21T06:19:45;96553.00;;;13.54;38.73
39363;BME280;25088;43.238;23.110;2023-02-21T06:22:11;96553.28;;;13.93;38.26
39363;BME280;25088;43.238;23.110;2023-02-21T06:24:36;96561.53;;;13.83;38.12
39363;BME280;25088;43.238;23.110;2023-02-21T06:27:02;96541.34;;;14.54;37.36
39363;BME280;25088;43.238;23.110;2023-02-21T06:29:28;96544.09;;;14.49;36.86
39363;BME280;25088;43.238;23.110;2023-02-21T06:31:57;96555.97;;;14.99;38.18
39363;BME280;25088;43.238;23.110;2023-02-21T06:34:23;96541.66;;;15.46;36.25
39363;BME280;25088;43.238;23.110;2023-02-21T06:36:53;96539.50;;;15.77;35.31
39363;BME280;25088;43.238;23.110;2023-02-21T06:39:20;96543.25;;;16.16;34.56
39363;BME280;25088;43.238;23.110;2023-02-21T06:41:45;96542.75;;;16.62;34.56
39363;BME280;25088;43.238;23.110;2023-02-21T06:44:13;96539.88;;;17.34;34.60
39363;BME280;25088;43.238;23.110;2023-02-21T06:46:38;96528.34;;;17.31;34.20
39363;BME280;25088;43.238;23.110;2023-02-21T06:49:04;96530.81;;;17.85;33.24
39363;BME280;25088;43.238;23.110;2023-02-21T06:51:38;96536.38;;;17.09;34.44
39363;BME280;25088;43.238;23.110;2023-02-21T06:54:05;96537.00;;;17.06;33.40
39363;BME280;25088;43.238;23.110;2023-02-21T06:56:32;96526.31;;;16.99;35.78
39363;BME280;25088;43.238;23.110;2023-02-21T06:58:58;96530.03;;;17.09;35.20
39363;BME280;25088;43.238;23.110;2023-02-21T07:01:25;96522.44;;;16.82;33.19
39363;BME280;25088;43.238;23.110;2023-02-21T07:03:55;96525.94;;;16.63;34.66
39363;BME280;25088;43.238;23.110;2023-02-21T07:06:21;96529.69;;;15.95;36.48
39363;BME280;25088;43.238;23.110;2023-02-21T07:08:47;96529.00;;;15.80;36.33
39363;BME280;25088;43.238;23.110;2023-02-21T07:11:14;96528.03;;;15.65;37.90
39363;BME280;25088;43.238;23.110;2023-02-21T07:13:39;96531.88;;;15.25;37.61
39363;BME280;25088;43.238;23.110;2023-02-21T07:16:05;96535.44;;;14.81;36.76
39363;BME280;25088;43.238;23.110;2023-02-21T07:18:31;96510.78;;;14.66;36.70
39363;BME280;25088;43.238;23.110;2023-02-21T07:20:57;96533.25;;;14.83;36.31
39363;BME280;25088;43.238;23.110;2023-02-21T07:23:22;96527.44;;;14.85;37.80
39363;BME280;25088;43.238;23.110;2023-02-21T07:25:48;96508.78;;;14.87;37.42
39363;BME280;25088;43.238;23.110;2023-02-21T07:28:13;96528.97;;;15.06;37.18
39363;BME280;25088;43.238;23.110;2023-02-21T07:30:39;96519.53;;;15.22;36.13
39363;BME280;25088;43.238;23.110;2023-02-21T07:33:04;96514.16;;;15.41;35.89
39363;BME280;25088;43.238;23.110;2023-02-21T07:35:30;96513.25;;;16.14;36.65
39363;BME280;25088;43.238;23.110;2023-02-21T07:37:56;96499.31;;;16.77;36.20
39363;BME280;25088;43.238;23.110;2023-02-21T07:40:21;96491.06;;;16.96;33.25
39363;BME280;25088;43.238;23.110;2023-02-21T07:42:47;96471.81;;;17.29;32.95
39363;BME280;25088;43.238;23.110;2023-02-21T07:45:14;96488.28;;;17.86;32.74
39363;BME280;25088;43.238;23.110;2023-02-21T07:47:40;96477.19;;;18.59;29.21
39363;BME280;25088;43.238;23.110;2023-02-21T07:50:08;96475.22;;;18.88;29.17
39363;BME280;25088;43.238;23.110;2023-02-21T07:52:34;96477.34;;;19.04;28.67
39363;BME280;25088;43.238;23.110;2023-02-21T07:54:59;96468.34;;;19.35;29.85
39363;BME280;25088;43.238;23.110;2023-02-21T07:57:27;96460.44;;;19.06;29.99
39363;BME280;25088;43.238;23.110;2023-02-21T07:59:52;96466.63;;;18.89;29.45
39363;BME280;25088;43.238;23.110;2023-02-21T08:02:18;96456.09;;;19.14;30.26
39363;BME280;25088;43.238;23.110;2023-02-21T08:04:43;96457.09;;;19.76;27.38
39363;BME280;25088;43.238;23.110;2023-02-21T08:07:09;96445.94;;;20.61;25.26
39363;BME280;25088;43.238;23.110;2023-02-21T08:09:35;96440.94;;;20.89;24.29
39363;BME280;25088;43.238;23.110;2023-02-21T08:12:02;96441.59;;;21.03;23.82
39363;BME280;25088;43.238;23.110;2023-02-21T08:14:28;96449.41;;;21.88;23.40
39363;BME280;25088;43.238;23.110;2023-02-21T08:16:54;96427.84;;;21.85;22.22
39363;BME280;25088;43.238;23.110;2023-02-21T08:19:19;96437.22;;;21.37;23.23
39363;BME280;25088;43.238;23.110;2023-02-21T08:21:48;96432.13;;;21.65;22.61
39363;BME280;25088;43.238;23.110;2023-02-21T08:24:15;96450.38;;;21.92;22.65
39363;BME280;25088;43.238;23.110;2023-02-21T08:26:41;96446.78;;;21.83;22.70
39363;BME280;25088;43.238;23.110;2023-02-21T08:29:13;96445.09;;;22.16;21.91
39363;BME280;25088;43.238;23.110;2023-02-21T08:31:40;96441.81;;;22.61;21.58
39363;BME280;25088;43.238;23.110;2023-02-21T08:34:07;96448.19;;;22.62;21.46
39363;BME280;25088;43.238;23.110;2023-02-21T08:36:34;96446.22;;;22.92;21.18
39363;BME280;25088;43.238;23.110;2023-02-21T08:39:00;96445.16;;;23.26;21.09
39363;BME280;25088;43.238;23.110;2023-02-21T08:41:34;96435.69;;;24.27;20.14
39363;BME280;25088;43.238;23.110;2023-02-21T08:44:00;96439.47;;;24.43;20.22
39363;BME280;25088;43.238;23.110;2023-02-21T08:46:25;96448.59;;;24.19;20.21
39363;BME280;25088;43.238;23.110;2023-02-21T08:48:51;96443.69;;;23.08;20.38
39363;BME280;25088;43.238;23.110;2023-02-21T08:51:16;96451.44;;;23.44;20.05
39363;BME280;25088;43.238;23.110;2023-02-21T08:53:42;96449.47;;;24.44;20.05
39363;BME280;25088;43.238;23.110;2023-02-21T08:56:07;96434.94;;;25.12;19.22
39363;BME280;25088;43.238;23.110;2023-02-21T08:58:33;96432.13;;;25.52;19.12
39363;BME280;25088;43.238;23.110;2023-02-21T09:00:58;96435.22;;;25.35;19.07
39363;BME280;25088;43.238;23.110;2023-02-21T09:03:24;96445.13;;;23.89;19.50
39363;BME280;25088;43.238;23.110;2023-02-21T09:05:49;96450.88;;;23.71;19.97
39363;BME280;25088;43.238;23.110;2023-02-21T09:08:15;96441.09;;;24.68;19.64
39363;BME280;25088;43.238;23.110;2023-02-21T09:10:41;96438.31;;;23.98;20.02
39363;BME280;25088;43.238;23.110;2023-02-21T09:13:11;96443.44;;;24.09;19.89
39363;BME280;25088;43.238;23.110;2023-02-21T09:15:37;96439.84;;;24.20;19.75
39363;BME280;25088;43.238;23.110;2023-02-21T09:18:03;96439.38;;;25.41;19.84
39363;BME280;25088;43.238;23.110;2023-02-21T09:20:28;96449.66;;;25.37;19.04
39363;BME280;25088;43.238;23.110;2023-02-21T09:22:54;96443.47;;;25.43;18.91
39363;BME280;25088;43.238;23.110;2023-02-21T09:25:21;96432.53;;;25.38;18.70
39363;BME280;25088;43.238;23.110;2023-02-21T09:27:49;96452.22;;;25.05;19.31
39363;BME280;25088;43.238;23.110;2023-02-21T09:30:19;96448.31;;;24.82;19.86
39363;BME280;25088;43.238;23.110;2023-02-21T09:32:47;96452.38;;;25.09;19.08
39363;BME280;25088;43.238;23.110;2023-02-21T09:35:13;96442.31;;;26.00;19.32
39363;BME280;25088;43.238;23.110;2023-02-21T09:37:41;96445.50;;;25.59;19.29
39363;BME280;25088;43.238;23.110;2023-02-21T09:42:45;96450.41;;;25.90;19.17
39363;BME280;25088;43.238;23.110;2023-02-21T09:45:14;96444.13;;;26.09;18.69
39363;BME280;25088;43.238;23.110;2023-02-21T09:47:42;96438.97;;;25.67;19.40
39363;BME280;25088;43.238;23.110;2023-02-21T09:50:14;96453.19;;;24.97;19.90
39363;BME280;25088;43.238;23.110;2023-02-21T09:52:41;96470.75;;;24.61;20.39
39363;BME280;25088;43.238;23.110;2023-02-21T09:55:29;96458.53;;;25.14;20.29
39363;BME280;25088;43.238;23.110;2023-02-21T09:57:55;96467.72;;;24.66;20.34
39363;BME280;25088;43.238;23.110;2023-02-21T10:00:24;96458.31;;;24.70;20.18
39363;BME280;25088;43.238;23.110;2023-02-21T10:08:40;96462.50;;;23.73;20.75
39363;BME280;25088;43.238;23.110;2023-02-21T10:16:40;96452.78;;;23.80;20.93
39363;BME280;25088;43.238;23.110;2023-02-21T10:19:11;96443.44;;;24.79;20.38
39363;BME280;25088;43.238;23.110;2023-02-21T10:21:44;96419.91;;;25.57;19.46
39363;BME280;25088;43.238;23.110;2023-02-21T10:24:20;96430.63;;;24.78;19.98
39363;BME280;25088;43.238;23.110;2023-02-21T10:27:22;96426.41;;;24.35;20.54
39363;BME280;25088;43.238;23.110;2023-02-21T10:30:06;96420.69;;;24.31;20.13
39363;BME280;25088;43.238;23.110;2023-02-21T10:32:36;96421.31;;;24.86;19.88
39363;BME280;25088;43.238;23.110;2023-02-21T10:35:02;96428.72;;;25.06;19.91
39363;BME280;25088;43.238;23.110;2023-02-21T10:37:35;96420.78;;;26.33;18.91
39363;BME280;25088;43.238;23.110;2023-02-21T10:42:47;96407.03;;;26.91;18.17
39363;BME280;25088;43.238;23.110;2023-02-21T10:45:17;96407.44;;;26.42;18.56
39363;BME280;25088;43.238;23.110;2023-02-21T10:47:59;96408.13;;;26.70;17.77
39363;BME280;25088;43.238;23.110;2023-02-21T10:53:09;96404.91;;;26.21;18.22
39363;BME280;25088;43.238;23.110;2023-02-21T10:56:06;96398.69;;;25.56;18.12
39363;BME280;25088;43.238;23.110;2023-02-21T10:58:32;96398.53;;;25.36;18.92
39363;BME280;25088;43.238;23.110;2023-02-21T11:01:12;96394.81;;;26.48;18.08
39363;BME280;25088;43.238;23.110;2023-02-21T11:03:43;96382.97;;;26.54;18.25
39363;BME280;25088;43.238;23.110;2023-02-21T11:06:21;96387.22;;;27.73;17.13
39363;BME280;25088;43.238;23.110;2023-02-21T11:08:48;96367.56;;;27.93;16.95
39363;BME280;25088;43.238;23.110;2023-02-21T11:11:13;96366.94;;;28.72;16.22
39363;BME280;25088;43.238;23.110;2023-02-21T11:13:39;96368.00;;;28.64;16.34
39363;BME280;25088;43.238;23.110;2023-02-21T11:16:18;96361.88;;;29.07;16.14
39363;BME280;25088;43.238;23.110;2023-02-21T11:18:44;96349.25;;;29.92;15.89
39363;BME280;25088;43.238;23.110;2023-02-21T11:21:15;96348.56;;;30.98;15.34
39363;BME280;25088;43.238;23.110;2023-02-21T11:23:58;96348.28;;;31.13;15.51
39363;BME280;25088;43.238;23.110;2023-02-21T11:26:28;96343.38;;;30.04;15.71
39363;BME280;25088;43.238;23.110;2023-02-21T11:29:09;96343.25;;;30.82;16.02
39363;BME280;25088;43.238;23.110;2023-02-21T11:31:36;96327.66;;;30.47;15.29
39363;BME280;25088;43.238;23.110;2023-02-21T11:34:06;96339.72;;;30.44;15.25
39363;BME280;25088;43.238;23.110;2023-02-21T11:36:35;96343.31;;;29.03;16.44
39363;BME280;25088;43.238;23.110;2023-02-21T11:41:34;96333.16;;;28.68;16.24
39363;BME280;25088;43.238;23.110;2023-02-21T11:44:00;96325.28;;;28.77;16.26
39363;BME280;25088;43.238;23.110;2023-02-21T11:46:45;96327.53;;;28.42;16.18
39363;BME280;25088;43.238;23.110;2023-02-21T11:50:00;96310.91;;;28.06;16.58
39363;BME280;25088;43.238;23.110;2023-02-21T11:52:12;96322.47;;;29.04;16.47
39363;BME280;25088;43.238;23.110;2023-02-21T11:54:39;96322.63;;;29.48;15.97
39363;BME280;25088;43.238;23.110;2023-02-21T11:57:19;96318.94;;;28.08;16.46
39363;BME280;25088;43.238;23.110;2023-02-21T12:00:06;96308.94;;;28.33;16.85
39363;BME280;25088;43.238;23.110;2023-02-21T12:08:18;96295.84;;;29.28;16.25
39363;BME280;25088;43.238;23.110;2023-02-21T12:11:11;96289.13;;;30.62;15.66
39363;BME280;25088;43.238;23.110;2023-02-21T12:19:47;96301.31;;;27.65;16.99
39363;BME280;25088;43.238;23.110;2023-02-21T12:22:30;96299.47;;;28.19;17.24
39363;BME280;25088;43.238;23.110;2023-02-21T12:25:51;96285.09;;;27.55;17.11
39363;BME280;25088;43.238;23.110;2023-02-21T12:38:53;96278.13;;;27.68;17.82
39363;BME280;25088;43.238;23.110;2023-02-21T12:51:55;96267.91;;;27.56;18.13
39363;BME280;25088;43.238;23.110;2023-02-21T12:54:48;96270.16;;;27.93;17.46
39363;BME280;25088;43.238;23.110;2023-02-21T12:57:20;96262.72;;;28.04;17.75
39363;BME280;25088;43.238;23.110;2023-02-21T13:00:17;96269.69;;;27.88;17.82
39363;BME280;25088;43.238;23.110;2023-02-21T13:06:09;96271.09;;;25.47;19.00
39363;BME280;25088;43.238;23.110;2023-02-21T13:09:01;96266.50;;;26.18;18.77
39363;BME280;25088;43.238;23.110;2023-02-21T13:11:38;96272.81;;;25.68;19.01
39363;BME280;25088;43.238;23.110;2023-02-21T13:14:13;96258.56;;;26.20;18.27
39363;BME280;25088;43.238;23.110;2023-02-21T13:16:40;96256.91;;;26.51;18.54
39363;BME280;25088;43.238;23.110;2023-02-21T13:19:09;96252.75;;;26.29;18.08
39363;BME280;25088;43.238;23.110;2023-02-21T13:24:47;96263.28;;;27.06;17.93
39363;BME280;25088;43.238;23.110;2023-02-21T13:27:50;96273.25;;;26.49;18.63
39363;BME280;25088;43.238;23.110;2023-02-21T13:30:22;96281.13;;;25.80;19.01
39363;BME280;25088;43.238;23.110;2023-02-21T13:32:55;96267.88;;;25.93;18.98
39363;BME280;25088;43.238;23.110;2023-02-21T13:35:34;96277.38;;;26.55;18.74
39363;BME280;25088;43.238;23.110;2023-02-21T13:38:01;96274.19;;;25.90;18.92
39363;BME280;25088;43.238;23.110;2023-02-21T13:43:27;96265.94;;;26.44;19.07
39363;BME280;25088;43.238;23.110;2023-02-21T13:45:54;96277.84;;;26.57;18.59
39363;BME280;25088;43.238;23.110;2023-02-21T13:48:39;96255.59;;;26.13;19.25
39363;BME280;25088;43.238;23.110;2023-02-21T13:51:05;96261.94;;;25.78;18.94
39363;BME280;25088;43.238;23.110;2023-02-21T13:53:32;96251.28;;;26.00;19.19
39363;BME280;25088;43.238;23.110;2023-02-21T13:56:20;96264.44;;;26.66;18.67
39363;BME280;25088;43.238;23.110;2023-02-21T14:01:48;96250.16;;;26.36;18.86
39363;BME280;25088;43.238;23.110;2023-02-21T14:04:54;96263.25;;;25.53;19.13
39363;BME280;25088;43.238;23.110;2023-02-21T14:10:42;96262.88;;;25.70;19.24
39363;BME280;25088;43.238;23.110;2023-02-21T14:13:16;96255.81;;;25.29;19.21
39363;BME280;25088;43.238;23.110;2023-02-21T14:15:45;96252.50;;;24.83;19.97
39363;BME280;25088;43.238;23.110;2023-02-21T14:23:49;96248.69;;;25.04;19.34
39363;BME280;25088;43.238;23.110;2023-02-21T14:31:57;96252.03;;;24.41;20.09
39363;BME280;25088;43.238;23.110;2023-02-21T14:38:28;96259.44;;;23.06;21.55
39363;BME280;25088;43.238;23.110;2023-02-21T15:02:17;96259.56;;;21.96;23.42
39363;BME280;25088;43.238;23.110;2023-02-21T15:07:27;96252.81;;;22.35;22.76
39363;BME280;25088;43.238;23.110;2023-02-21T15:12:46;96247.50;;;20.46;24.45
39363;BME280;25088;43.238;23.110;2023-02-21T15:15:20;96261.81;;;20.13;25.27
39363;BME280;25088;43.238;23.110;2023-02-21T15:20:23;96267.44;;;19.43;25.95
39363;BME280;25088;43.238;23.110;2023-02-21T15:23:19;96272.97;;;19.11;26.30
39363;BME280;25088;43.238;23.110;2023-02-21T15:25:57;96278.97;;;18.82;26.23
39363;BME280;25088;43.238;23.110;2023-02-21T15:28:28;96270.94;;;18.72;26.95
39363;BME280;25088;43.238;23.110;2023-02-21T15:31:00;96265.53;;;18.53;27.47
39363;BME280;25088;43.238;23.110;2023-02-21T15:33:30;96274.28;;;18.47;26.86
39363;BME280;25088;43.238;23.110;2023-02-21T15:36:04;96275.03;;;18.25;27.30
39363;BME280;25088;43.238;23.110;2023-02-21T15:38:36;96281.66;;;18.15;27.67
39363;BME280;25088;43.238;23.110;2023-02-21T15:43:52;96280.75;;;17.78;28.58
39363;BME280;25088;43.238;23.110;2023-02-21T15:46:27;96280.13;;;17.68;28.75
39363;BME280;25088;43.238;23.110;2023-02-21T15:48:59;96284.63;;;17.64;28.51
39363;BME280;25088;43.238;23.110;2023-02-21T15:51:26;96276.84;;;17.52;29.62
39363;BME280;25088;43.238;23.110;2023-02-21T15:54:31;96283.28;;;17.47;28.74
39363;BME280;25088;43.238;23.110;2023-02-21T15:57:03;96284.31;;;17.38;28.44